createdAt,value
2023-04-18T00:01:30.401Z,5.29
2023-04-18T00:03:57.058Z,5.19
2023-04-18T00:06:23.724Z,5.21
2023-04-18T00:08:51.630Z,5.13
2023-04-18T00:11:18.505Z,4.93
2023-04-18T00:13:45.072Z,4.95
2023-04-18T00:16:11.718Z,5.02
2023-04-18T00:18:38.317Z,4.97
2023-04-18T00:21:05.236Z,4.96
2023-04-18T00:23:31.832Z,4.85
2023-04-18T00:26:00.229Z,4.83
2023-04-18T00:28:27.395Z,4.85
2023-04-18T00:30:54.992Z,4.81
2023-04-18T00:33:21.614Z,4.77
2023-04-18T00:35:51.994Z,4.72
2023-04-18T00:38:18.626Z,4.71
2023-04-18T00:40:47.847Z,4.69
2023-04-18T00:43:16.172Z,4.69
2023-04-18T00:45:42.805Z,4.67
2023-04-18T00:48:10.976Z,4.62
2023-04-18T00:50:37.865Z,4.56
2023-04-18T00:53:04.728Z,4.37
2023-04-18T00:55:31.535Z,4.31
2023-04-18T00:57:58.528Z,4.24
2023-04-18T01:00:26.910Z,4.40
2023-04-18T01:02:53.724Z,4.43
2023-04-18T01:05:21.308Z,4.34
2023-04-18T01:07:49.048Z,4.34
2023-04-18T01:10:15.797Z,4.15
2023-04-18T01:12:42.507Z,4.13
2023-04-18T01:15:09.562Z,4.02
2023-04-18T01:17:38.159Z,4.06
2023-04-18T01:20:05.671Z,4.00
2023-04-18T01:22:33.364Z,3.91
2023-04-18T01:25:06.850Z,3.92
2023-04-18T01:27:33.501Z,3.91
2023-04-18T01:30:00.200Z,3.84
2023-04-18T01:32:29.773Z,3.77
2023-04-18T01:34:56.321Z,3.58
2023-04-18T01:37:22.860Z,3.71
2023-04-18T01:39:49.431Z,3.68
2023-04-18T01:42:20.019Z,3.61
2023-04-18T01:44:46.617Z,3.62
2023-04-18T01:47:13.168Z,3.60
2023-04-18T01:49:39.886Z,3.56
2023-04-18T01:52:06.581Z,3.51
2023-04-18T01:54:33.216Z,3.46
2023-04-18T01:56:59.729Z,3.39
2023-04-18T01:59:27.717Z,3.35
2023-04-18T02:01:54.767Z,3.25
2023-04-18T02:04:21.557Z,3.30
2023-04-18T02:06:48.154Z,3.33
2023-04-18T02:09:14.819Z,3.38
2023-04-18T02:11:42.873Z,3.33
2023-04-18T02:14:09.493Z,3.31
2023-04-18T02:16:37.631Z,3.20
2023-04-18T02:19:04.309Z,3.18
2023-04-18T02:21:30.810Z,3.14
2023-04-18T02:23:57.730Z,3.12
2023-04-18T02:26:24.286Z,3.01
2023-04-18T02:28:50.926Z,3.15
2023-04-18T02:31:17.490Z,3.13
2023-04-18T02:33:46.613Z,3.05
2023-04-18T02:36:13.916Z,2.89
2023-04-18T02:38:42.303Z,2.79
2023-04-18T02:41:08.843Z,2.91
2023-04-18T02:43:35.371Z,2.90
2023-04-18T02:46:03.022Z,2.91
2023-04-18T02:48:29.682Z,2.84
2023-04-18T02:51:02.813Z,2.81
2023-04-18T02:53:30.785Z,2.82
2023-04-18T02:55:57.708Z,2.78
2023-04-18T02:58:32.304Z,2.75
2023-04-18T03:01:13.437Z,2.72
2023-04-18T03:04:02.902Z,2.68
2023-04-18T03:06:38.969Z,2.75
2023-04-18T03:09:06.716Z,2.77
2023-04-18T03:11:36.752Z,2.68
2023-04-18T03:14:04.370Z,2.64
2023-04-18T03:16:40.588Z,2.56
2023-04-18T03:19:10.376Z,2.53
2023-04-18T03:21:36.959Z,2.47
2023-04-18T03:24:05.884Z,2.39
2023-04-18T03:26:34.476Z,2.34
2023-04-18T03:29:01.442Z,2.33
2023-04-18T03:31:28.135Z,2.32
2023-04-18T03:33:54.982Z,2.17
2023-04-18T03:36:21.535Z,2.23
2023-04-18T03:38:48.136Z,2.19
2023-04-18T03:41:16.168Z,2.02
2023-04-18T03:43:42.813Z,2.13
2023-04-18T03:46:09.579Z,2.09
2023-04-18T03:48:37.117Z,2.04
2023-04-18T03:51:08.001Z,1.91
2023-04-18T03:53:35.724Z,1.91
2023-04-18T03:56:02.297Z,1.72
2023-04-18T03:58:51.565Z,1.83
2023-04-18T04:01:20.023Z,1.84
2023-04-18T04:03:46.773Z,1.83
2023-04-18T04:06:14.165Z,1.74
2023-04-18T04:08:40.703Z,1.79
2023-04-18T04:11:07.826Z,1.70
2023-04-18T04:13:34.334Z,1.74
2023-04-18T04:16:02.623Z,1.74
2023-04-18T04:18:29.298Z,1.53
2023-04-18T04:20:57.646Z,1.68
2023-04-18T04:23:41.801Z,1.61
2023-04-18T04:26:09.968Z,1.57
2023-04-18T04:28:43.983Z,1.64
2023-04-18T04:31:12.652Z,1.61
2023-04-18T04:33:40.560Z,1.59
2023-04-18T04:36:16.677Z,1.62
2023-04-18T04:38:46.723Z,1.59
2023-04-18T04:41:13.421Z,1.54
2023-04-18T04:43:40.087Z,1.50
2023-04-18T04:46:17.983Z,1.30
2023-04-18T04:48:44.991Z,1.49
2023-04-18T04:51:11.677Z,1.49
2023-04-18T04:53:38.332Z,1.49
2023-04-18T04:56:06.911Z,1.52
2023-04-18T04:58:34.125Z,1.55
2023-04-18T05:01:14.788Z,1.55
2023-04-18T05:03:43.308Z,1.58
2023-04-18T05:06:10.169Z,1.59
2023-04-18T05:08:36.876Z,1.60
2023-04-18T05:11:03.538Z,1.63
2023-04-18T05:13:30.128Z,1.68
2023-04-18T05:15:56.807Z,1.67
2023-04-18T05:18:23.381Z,1.69
2023-04-18T05:20:51.532Z,1.79
2023-04-18T05:23:18.130Z,1.80
2023-04-18T05:25:44.758Z,1.85
2023-04-18T05:28:11.302Z,1.89
2023-04-18T05:30:38.001Z,1.93
2023-04-18T05:33:04.639Z,2.00
2023-04-18T05:35:31.503Z,2.09
2023-04-18T05:37:59.715Z,2.18
2023-04-18T05:40:26.727Z,2.28
2023-04-18T05:42:53.649Z,2.36
2023-04-18T05:45:20.228Z,2.36
2023-04-18T05:47:47.235Z,2.32
2023-04-18T05:50:13.801Z,2.64
2023-04-18T05:52:40.445Z,2.48
2023-04-18T05:55:09.300Z,2.71
2023-04-18T05:57:35.916Z,2.90
2023-04-18T06:00:02.589Z,2.96
2023-04-18T06:02:39.341Z,3.13
2023-04-18T06:05:06.938Z,3.22
2023-04-18T06:07:33.673Z,3.31
2023-04-18T06:10:00.288Z,3.53
2023-04-18T06:12:28.197Z,3.70
2023-04-18T06:14:54.778Z,3.69
2023-04-18T06:17:21.672Z,3.96
2023-04-18T06:19:48.337Z,4.10
2023-04-18T06:22:14.857Z,4.06
2023-04-18T06:24:41.441Z,4.22
2023-04-18T06:27:14.947Z,4.34
2023-04-18T06:29:48.797Z,4.58
2023-04-18T06:32:15.453Z,4.65
2023-04-18T06:34:42.062Z,4.76
2023-04-18T06:37:08.637Z,4.87
2023-04-18T06:39:35.271Z,4.90
2023-04-18T06:42:01.988Z,5.00
2023-04-18T06:44:28.838Z,5.09
2023-04-18T06:46:56.852Z,5.21
2023-04-18T06:49:26.382Z,5.28
2023-04-18T06:51:53.406Z,5.55
2023-04-18T06:54:20.287Z,5.79
2023-04-18T06:56:46.982Z,6.03
2023-04-18T06:59:13.704Z,6.22
2023-04-18T07:01:41.397Z,6.49
2023-04-18T07:04:09.557Z,6.72
2023-04-18T07:06:36.286Z,6.61
2023-04-18T07:09:03.093Z,7.13
2023-04-18T07:11:29.837Z,7.33
2023-04-18T07:13:56.452Z,7.25
2023-04-18T07:16:23.156Z,7.56
2023-04-18T07:18:49.752Z,7.77
2023-04-18T07:21:18.685Z,7.84
2023-04-18T07:23:45.336Z,8.08
2023-04-18T07:26:11.901Z,8.15
2023-04-18T07:28:38.559Z,8.41
2023-04-18T07:31:05.158Z,8.44
2023-04-18T07:33:31.797Z,8.49
2023-04-18T07:35:58.398Z,8.63
2023-04-18T07:38:27.043Z,8.84
2023-04-18T07:40:57.069Z,9.03
2023-04-18T07:43:23.776Z,9.34
2023-04-18T07:45:51.258Z,9.41
2023-04-18T07:48:17.944Z,9.58
2023-04-18T07:50:44.465Z,9.74
2023-04-18T07:53:11.058Z,9.78
2023-04-18T07:55:38.943Z,9.84
2023-04-18T07:58:05.568Z,9.98
2023-04-18T08:00:32.208Z,10.21
2023-04-18T08:02:58.919Z,10.22
2023-04-18T08:05:25.667Z,10.57
2023-04-18T08:07:52.401Z,10.59
2023-04-18T08:10:18.999Z,10.63
2023-04-18T08:12:46.962Z,10.62
2023-04-18T08:15:13.753Z,10.75
2023-04-18T08:17:40.374Z,10.74
2023-04-18T08:20:07.728Z,10.78
2023-04-18T08:22:37.826Z,10.77
2023-04-18T08:25:10.873Z,10.77
2023-04-18T08:27:37.470Z,10.90
2023-04-18T08:30:07.148Z,10.98
2023-04-18T08:32:35.636Z,10.96
2023-04-18T08:35:02.304Z,11.08
2023-04-18T08:37:28.858Z,11.01
2023-04-18T08:39:55.489Z,11.03
2023-04-18T08:42:23.298Z,11.04
2023-04-18T08:44:50.036Z,10.91
2023-04-18T08:47:18.005Z,10.87
2023-04-18T08:49:44.621Z,10.88
2023-04-18T08:52:14.248Z,10.90
2023-04-18T08:54:41.449Z,10.93
2023-04-18T08:57:09.448Z,11.12
2023-04-18T08:59:36.276Z,11.18
2023-04-18T09:02:04.313Z,11.28
2023-04-18T09:04:40.601Z,11.39
2023-04-18T09:07:09.161Z,11.46
2023-04-18T09:09:43.611Z,11.47
2023-04-18T09:12:11.491Z,11.48
2023-04-18T09:14:38.282Z,11.49
2023-04-18T09:17:05.000Z,11.55
2023-04-18T09:19:31.588Z,11.62
2023-04-18T09:22:02.020Z,11.71
2023-04-18T09:24:29.186Z,11.89
2023-04-18T09:26:56.906Z,11.94
2023-04-18T09:29:42.232Z,12.04
2023-04-18T09:32:09.280Z,12.10
2023-04-18T09:34:41.771Z,12.29
2023-04-18T09:37:11.119Z,12.51
2023-04-18T09:39:38.633Z,12.65
2023-04-18T09:42:05.612Z,12.77
2023-04-18T09:44:32.163Z,12.88
2023-04-18T09:46:58.777Z,12.95
2023-04-18T09:49:25.358Z,12.83
2023-04-18T09:51:54.291Z,12.85
2023-04-18T09:54:24.094Z,12.95
2023-04-18T09:56:52.082Z,13.19
2023-04-18T09:59:32.617Z,13.57
2023-04-18T10:01:59.750Z,13.75
2023-04-18T10:04:28.068Z,13.85
2023-04-18T10:06:54.812Z,13.98
2023-04-18T10:09:23.344Z,13.99
2023-04-18T10:11:50.252Z,13.98
2023-04-18T10:14:17.434Z,13.68
2023-04-18T10:16:44.773Z,13.91
2023-04-18T10:19:22.108Z,13.91
2023-04-18T10:21:53.179Z,13.59
2023-04-18T10:24:48.731Z,13.78
2023-04-18T10:27:15.769Z,13.74
2023-04-18T10:29:50.269Z,13.80
2023-04-18T10:32:18.033Z,13.71
2023-04-18T10:34:46.139Z,13.87
2023-04-18T10:37:13.020Z,13.81
2023-04-18T10:39:58.290Z,13.87
2023-04-18T10:42:58.566Z,14.04
2023-04-18T10:45:26.388Z,14.07
2023-04-18T10:48:21.905Z,14.32
2023-04-18T10:51:12.671Z,14.53
2023-04-18T10:53:39.785Z,14.68
2023-04-18T10:56:09.756Z,14.90
2023-04-18T10:58:36.688Z,15.01
2023-04-18T11:01:04.574Z,15.11
2023-04-18T11:03:32.839Z,15.20
2023-04-18T11:06:01.726Z,15.24
2023-04-18T11:08:29.080Z,15.26
2023-04-18T11:10:58.798Z,15.29
2023-04-18T11:13:27.149Z,15.40
2023-04-18T11:15:54.099Z,15.51
2023-04-18T11:18:20.712Z,15.56
2023-04-18T11:20:48.389Z,15.73
2023-04-18T11:23:16.885Z,15.92
2023-04-18T11:25:43.401Z,16.09
2023-04-18T11:28:10.311Z,16.25
2023-04-18T11:30:39.795Z,16.41
2023-04-18T11:33:07.693Z,16.60
2023-04-18T11:35:37.635Z,16.72
2023-04-18T11:38:05.313Z,16.84
2023-04-18T11:40:31.879Z,16.84
2023-04-18T11:43:01.174Z,16.73
2023-04-18T11:45:28.215Z,16.71
2023-04-18T11:47:57.572Z,16.53
2023-04-18T11:50:25.004Z,16.49
2023-04-18T11:52:53.009Z,16.36
2023-04-18T11:55:21.660Z,16.27
2023-04-18T11:57:53.037Z,16.20
2023-04-18T12:00:29.956Z,16.22
2023-04-18T12:02:59.079Z,16.04
2023-04-18T12:05:26.489Z,15.94
2023-04-18T12:07:53.374Z,15.81
2023-04-18T12:10:25.320Z,15.76
2023-04-18T12:12:53.163Z,15.53
2023-04-18T12:15:20.569Z,15.53
2023-04-18T12:17:47.994Z,15.49
2023-04-18T12:20:15.893Z,15.51
2023-04-18T12:22:44.839Z,15.61
2023-04-18T12:25:16.529Z,15.62
2023-04-18T12:27:46.788Z,15.63
2023-04-18T12:30:14.268Z,15.61
2023-04-18T12:32:40.976Z,15.74
2023-04-18T12:35:08.619Z,15.73
2023-04-18T12:37:36.523Z,15.88
2023-04-18T12:40:03.203Z,15.98
2023-04-18T12:42:29.707Z,16.06
2023-04-18T12:44:56.216Z,16.11
2023-04-18T12:47:22.783Z,16.03
2023-04-18T12:49:49.345Z,16.08
2023-04-18T12:52:15.871Z,16.21
2023-04-18T12:54:43.809Z,16.24
2023-04-18T12:57:10.316Z,16.42
2023-04-18T12:59:36.819Z,16.53
2023-04-18T13:02:03.517Z,16.51
2023-04-18T13:04:30.258Z,16.41
2023-04-18T13:06:57.232Z,16.39
2023-04-18T13:09:23.854Z,16.47
2023-04-18T13:11:51.725Z,16.63
2023-04-18T13:14:18.581Z,16.59
2023-04-18T13:16:45.205Z,16.67
2023-04-18T13:19:11.887Z,16.72
2023-04-18T13:21:38.548Z,16.85
2023-04-18T13:24:05.597Z,16.91
2023-04-18T13:26:32.190Z,16.99
2023-04-18T13:29:00.072Z,17.03
2023-04-18T13:31:26.645Z,17.00
2023-04-18T13:33:53.169Z,17.01
2023-04-18T13:36:20.120Z,17.09
2023-04-18T13:38:47.369Z,17.21
2023-04-18T13:41:13.950Z,17.25
2023-04-18T13:43:40.505Z,17.26
2023-04-18T13:46:08.646Z,17.44
2023-04-18T13:48:35.317Z,17.36
2023-04-18T13:51:02.198Z,17.38
2023-04-18T13:53:30.744Z,17.42
2023-04-18T13:55:57.752Z,17.50
2023-04-18T13:58:24.374Z,17.55
2023-04-18T14:00:50.884Z,17.72
2023-04-18T14:03:18.842Z,17.91
2023-04-18T14:05:45.638Z,18.04
2023-04-18T14:08:12.170Z,18.06
2023-04-18T14:10:38.872Z,17.80
2023-04-18T14:13:05.465Z,17.53
2023-04-18T14:15:32.071Z,17.25
2023-04-18T14:17:58.680Z,17.02
2023-04-18T14:20:26.715Z,16.95
2023-04-18T14:22:53.402Z,16.81
2023-04-18T14:25:19.945Z,17.09
2023-04-18T14:27:47.635Z,17.25
2023-04-18T14:30:15.050Z,17.50
2023-04-18T14:32:41.633Z,17.72
2023-04-18T14:35:09.816Z,17.73
2023-04-18T14:37:37.799Z,17.83
2023-04-18T14:40:05.201Z,17.89
2023-04-18T14:42:31.762Z,17.68
2023-04-18T14:44:58.378Z,17.44
2023-04-18T14:47:24.939Z,17.25
2023-04-18T14:49:51.454Z,17.13
2023-04-18T14:52:18.061Z,17.08
2023-04-18T14:54:46.149Z,17.12
2023-04-18T14:57:13.069Z,17.15
2023-04-18T14:59:39.600Z,17.18
2023-04-18T15:02:06.832Z,17.30
2023-04-18T15:04:33.448Z,17.36
2023-04-18T15:07:00.159Z,17.54
2023-04-18T15:09:26.735Z,17.71
2023-04-18T15:11:54.672Z,17.99
2023-04-18T15:14:21.236Z,18.09
2023-04-18T15:16:48.948Z,18.19
2023-04-18T15:19:15.713Z,18.42
2023-04-18T15:21:42.351Z,18.50
2023-04-18T15:24:08.889Z,18.61
2023-04-18T15:26:35.477Z,18.76
2023-04-18T15:29:03.712Z,18.94
2023-04-18T15:31:30.563Z,19.19
2023-04-18T15:33:57.099Z,19.35
2023-04-18T15:36:23.799Z,19.41
2023-04-18T15:38:50.315Z,19.38
2023-04-18T15:41:16.827Z,19.26
2023-04-18T15:43:43.608Z,19.34
2023-04-18T15:46:11.614Z,19.29
2023-04-18T15:48:38.448Z,19.37
2023-04-18T15:51:05.063Z,19.15
2023-04-18T15:53:31.604Z,19.34
2023-04-18T15:55:58.109Z,19.27
2023-04-18T15:58:24.644Z,19.32
2023-04-18T16:00:51.195Z,19.10
2023-04-18T16:03:19.295Z,19.37
2023-04-18T16:05:45.984Z,19.53
2023-04-18T16:08:12.494Z,19.74
2023-04-18T16:10:39.011Z,19.72
2023-04-18T16:13:05.922Z,19.78
2023-04-18T16:15:33.017Z,19.90
2023-04-18T16:17:59.845Z,19.95
2023-04-18T16:20:27.805Z,19.87
2023-04-18T16:22:54.331Z,19.66
2023-04-18T16:25:20.847Z,19.37
2023-04-18T16:27:47.429Z,18.99
2023-04-18T16:30:15.299Z,18.60
2023-04-18T16:32:41.957Z,18.56
2023-04-18T16:35:09.459Z,18.53
2023-04-18T16:37:38.237Z,18.56
2023-04-18T16:40:06.439Z,18.58
2023-04-18T16:42:33.256Z,18.70
2023-04-18T16:45:00.903Z,18.77
2023-04-18T16:47:27.681Z,18.90
2023-04-18T16:49:54.844Z,18.57
2023-04-18T16:52:22.012Z,18.74
2023-04-18T16:54:52.432Z,18.86
2023-04-18T16:57:19.219Z,19.01
2023-04-18T16:59:45.790Z,19.11
2023-04-18T17:02:12.465Z,19.13
2023-04-18T17:04:39.288Z,18.91
2023-04-18T17:07:06.107Z,18.74
2023-04-18T17:09:32.662Z,18.54
2023-04-18T17:12:00.563Z,18.10
2023-04-18T17:14:27.128Z,17.75
2023-04-18T17:16:53.945Z,17.30
2023-04-18T17:19:20.508Z,17.05
2023-04-18T17:21:47.047Z,16.83
2023-04-18T17:24:13.654Z,16.69
2023-04-18T17:26:40.173Z,16.57
2023-04-18T17:29:08.449Z,16.52
2023-04-18T17:31:35.048Z,16.35
2023-04-18T17:34:01.717Z,16.14
2023-04-18T17:36:28.319Z,16.05
2023-04-18T17:38:55.162Z,15.91
2023-04-18T17:41:22.105Z,15.80
2023-04-18T17:43:48.721Z,15.69
2023-04-18T17:46:16.734Z,15.58
2023-04-18T17:48:43.312Z,15.43
2023-04-18T17:51:09.807Z,15.35
2023-04-18T17:53:36.399Z,15.29
2023-04-18T17:56:03.222Z,15.23
2023-04-18T17:58:29.813Z,15.19
2023-04-18T18:00:56.402Z,15.10
2023-04-18T18:03:24.626Z,15.00
2023-04-18T18:05:52.116Z,14.86
2023-04-18T18:08:18.863Z,14.85
2023-04-18T18:10:46.631Z,14.57
2023-04-18T18:13:13.355Z,14.60
2023-04-18T18:15:39.916Z,14.51
2023-04-18T18:18:06.510Z,14.38
2023-04-18T18:20:34.513Z,14.30
2023-04-18T18:23:01.092Z,14.24
2023-04-18T18:25:27.677Z,14.18
2023-04-18T18:27:54.213Z,14.13
2023-04-18T18:30:20.820Z,14.11
2023-04-18T18:32:47.448Z,13.83
2023-04-18T18:35:14.027Z,14.03
2023-04-18T18:37:41.953Z,13.99
2023-04-18T18:40:09.465Z,13.93
2023-04-18T18:42:36.751Z,13.91
2023-04-18T18:45:03.761Z,13.68
2023-04-18T18:47:30.595Z,13.78
2023-04-18T18:49:57.520Z,13.74
2023-04-18T18:52:24.127Z,13.71
2023-04-18T18:54:52.859Z,13.70
2023-04-18T18:57:19.391Z,13.54
2023-04-18T18:59:46.101Z,13.68
2023-04-18T19:02:12.751Z,13.65
2023-04-18T19:04:39.492Z,13.58
2023-04-18T19:07:06.260Z,13.54
2023-04-18T19:09:32.872Z,13.51
2023-04-18T19:12:00.846Z,13.48
2023-04-18T19:14:27.383Z,13.47
2023-04-18T19:16:53.908Z,13.50
2023-04-18T19:19:20.461Z,13.24
2023-04-18T19:21:47.140Z,13.45
2023-04-18T19:24:13.761Z,13.45
2023-04-18T19:26:40.889Z,13.40
2023-04-18T19:29:09.994Z,13.42
2023-04-18T19:31:36.580Z,13.42
2023-04-18T19:34:03.473Z,13.45
2023-04-18T19:36:30.038Z,13.19
2023-04-18T19:38:56.586Z,13.39
2023-04-18T19:41:24.094Z,13.35
2023-04-18T19:43:50.705Z,13.21
2023-04-18T19:46:18.671Z,13.33
2023-04-18T19:48:45.330Z,13.31
2023-04-18T19:51:11.954Z,13.28
2023-04-18T19:53:38.888Z,13.31
2023-04-18T19:56:05.464Z,13.35
2023-04-18T19:58:35.558Z,13.30
2023-04-18T20:01:02.166Z,13.25
2023-04-18T20:03:30.266Z,13.21
2023-04-18T20:05:57.004Z,13.28
2023-04-18T20:08:23.640Z,13.17
2023-04-18T20:10:50.165Z,13.22
2023-04-18T20:13:16.723Z,13.20
2023-04-18T20:15:43.421Z,13.24
2023-04-18T20:18:10.041Z,13.18
2023-04-18T20:20:37.966Z,13.18
2023-04-18T20:23:04.545Z,13.11
2023-04-18T20:25:32.763Z,13.16
2023-04-18T20:27:59.398Z,13.11
2023-04-18T20:30:26.044Z,13.07
2023-04-18T20:32:52.667Z,12.97
2023-04-18T20:35:19.288Z,13.05
2023-04-18T20:37:47.219Z,13.01
2023-04-18T20:40:13.773Z,13.03
2023-04-18T20:42:40.344Z,12.69
2023-04-18T20:45:08.154Z,13.01
2023-04-18T20:47:34.796Z,12.86
2023-04-18T20:50:01.497Z,12.78
2023-04-18T20:52:28.099Z,12.91
2023-04-18T20:54:56.005Z,12.98
2023-04-18T20:57:22.615Z,12.76
2023-04-18T20:59:49.200Z,12.80
2023-04-18T21:02:15.850Z,12.92
2023-04-18T21:04:42.625Z,12.90
2023-04-18T21:07:09.230Z,12.70
2023-04-18T21:09:36.099Z,12.87
2023-04-18T21:12:05.328Z,12.88
2023-04-18T21:14:32.014Z,12.85
2023-04-18T21:16:58.872Z,12.66
2023-04-18T21:19:25.499Z,12.83
2023-04-18T21:21:52.182Z,12.87
2023-04-18T21:24:19.028Z,12.83
2023-04-18T21:26:45.610Z,12.81
2023-04-18T21:29:13.548Z,12.79
2023-04-18T21:31:40.434Z,12.77
2023-04-18T21:34:07.033Z,12.70
2023-04-18T21:36:33.649Z,12.67
2023-04-18T21:39:00.853Z,12.71
2023-04-18T21:41:27.533Z,12.72
2023-04-18T21:43:54.149Z,12.59
2023-04-18T21:46:22.269Z,12.71
2023-04-18T21:48:48.975Z,12.66
2023-04-18T21:51:16.447Z,12.69
2023-04-18T21:53:43.335Z,12.62
2023-04-18T21:56:10.164Z,12.44
2023-04-18T21:58:36.697Z,12.61
2023-04-18T22:01:03.528Z,12.60
2023-04-18T22:03:32.715Z,12.67
2023-04-18T22:05:59.602Z,12.66
2023-04-18T22:08:26.479Z,12.69
2023-04-18T22:10:53.647Z,12.68
2023-04-18T22:13:20.250Z,12.63
2023-04-18T22:15:46.789Z,12.59
2023-04-18T22:18:13.750Z,12.48
2023-04-18T22:20:41.795Z,12.42
2023-04-18T22:23:08.449Z,12.45
2023-04-18T22:25:35.514Z,12.35
2023-04-18T22:28:02.475Z,12.34
2023-04-18T22:30:29.009Z,12.46
2023-04-18T22:32:55.604Z,12.27
2023-04-18T22:35:22.165Z,12.45
2023-04-18T22:37:50.029Z,12.40
2023-04-18T22:40:16.856Z,12.40
2023-04-18T22:42:43.484Z,12.37
2023-04-18T22:45:10.815Z,12.35
2023-04-18T22:47:37.424Z,12.11
2023-04-18T22:50:04.684Z,12.29
2023-04-18T22:52:31.312Z,12.30
2023-04-18T22:54:59.233Z,12.28
2023-04-18T22:57:25.770Z,12.31
2023-04-18T22:59:52.282Z,12.31
2023-04-18T23:02:19.055Z,12.25
2023-04-18T23:04:45.823Z,12.29
2023-04-18T23:07:12.667Z,12.23
2023-04-18T23:09:39.299Z,12.27
2023-04-18T23:12:07.247Z,12.26
2023-04-18T23:14:33.772Z,12.31
2023-04-18T23:17:00.416Z,12.21
2023-04-18T23:19:26.938Z,12.21
2023-04-18T23:21:53.486Z,12.21
2023-04-18T23:24:20.018Z,12.20
2023-04-18T23:26:46.548Z,12.00
2023-04-18T23:29:14.414Z,12.19
2023-04-18T23:31:41.062Z,12.21
2023-04-18T23:34:07.634Z,12.20
2023-04-18T23:36:34.179Z,12.20
2023-04-18T23:39:00.741Z,12.06
2023-04-18T23:41:27.247Z,12.11
2023-04-18T23:43:53.861Z,12.11
2023-04-18T23:46:21.885Z,12.12
2023-04-18T23:48:48.736Z,12.12
2023-04-18T23:51:15.277Z,11.75
2023-04-18T23:53:42.083Z,12.03
2023-04-18T23:56:08.677Z,12.11
2023-04-18T23:58:35.289Z,12.08
